Startpagina
METAR-TAF:

METAR-TAF

Vliegvelden :

Aérodrome de Pontoise-Cormeilles-en-Vexin

Pontoise, Frankrijk

breedte: 49-05-48N, lengte: 002-02-27E, hoogte: 99 m

Actueel weer

Dit bericht is 21 minuten geleden gemaakt, om 22:30 UTC
Wind 7 kt uit het oosten
Temperatuur 6°C
Vochtigheid 93%
Druk 1025 hPa
Zicht: 5000 m
Geheel bewolkt op 700 ft
nevel

METAR: LFPT 162230Z AUTO 10007KT 5000 BR OVC007 06/05 Q1025

Tijdstip: 23:51 (22:51 UTC)


TAF: ontbreekt

Waarnemingen en weersverwachtingen van meer dan 4000 vliegvelden (METAR en TAF).

De beschikbare stations zijn de gele en rode punten op de kaart.

Ga met uw muis naar het station om de naam te zien.

Klik dan om waarnemingen en weersverwachtingen te zien.

kaart wijzigen: klik op de groene knoppen met een zwart kruis om in te zoomen, op de groene knop met een streepje om uit te zoomen of op de groene pijlen voor aangrenzende kaarten.


METAR-TAF: